sensor_id;sensor_type;location;lat;lon;timestamp;P1;durP1;ratioP1;P2;durP2;ratioP2
2542;SDS011;1116;51.502;7.414;2022-10-18T00:01:09;2.83;;;2.43;;
2542;SDS011;1116;51.502;7.414;2022-10-18T00:03:44;2.50;;;2.30;;
2542;SDS011;1116;51.502;7.414;2022-10-18T00:06:17;2.50;;;2.30;;
2542;SDS011;1116;51.502;7.414;2022-10-18T00:08:48;3.77;;;2.57;;
2542;SDS011;1116;51.502;7.414;2022-10-18T00:11:21;2.20;;;2.00;;
2542;SDS011;1116;51.502;7.414;2022-10-18T00:13:56;2.50;;;2.30;;
2542;SDS011;1116;51.502;7.414;2022-10-18T00:16:27;2.40;;;2.00;;
2542;SDS011;1116;51.502;7.414;2022-10-18T00:18:59;3.63;;;2.13;;
2542;SDS011;1116;51.502;7.414;2022-10-18T00:21:30;2.30;;;1.90;;
2542;SDS011;1116;51.502;7.414;2022-10-18T00:24:05;3.30;;;1.90;;
2542;SDS011;1116;51.502;7.414;2022-10-18T00:26:40;2.40;;;2.20;;
2542;SDS011;1116;51.502;7.414;2022-10-18T00:29:14;2.00;;;1.70;;
2542;SDS011;1116;51.502;7.414;2022-10-18T00:31:46;2.57;;;1.93;;
2542;SDS011;1116;51.502;7.414;2022-10-18T00:34:17;3.53;;;2.77;;
2542;SDS011;1116;51.502;7.414;2022-10-18T00:36:48;4.80;;;2.20;;
2542;SDS011;1116;51.502;7.414;2022-10-18T00:39:25;3.60;;;2.50;;
2542;SDS011;1116;51.502;7.414;2022-10-18T00:42:02;3.80;;;2.67;;
2542;SDS011;1116;51.502;7.414;2022-10-18T00:47:30;2.50;;;1.83;;
2542;SDS011;1116;51.502;7.414;2022-10-18T00:50:08;3.90;;;2.33;;
2542;SDS011;1116;51.502;7.414;2022-10-18T00:52:41;3.23;;;2.80;;
2542;SDS011;1116;51.502;7.414;2022-10-18T00:55:16;4.00;;;3.10;;
2542;SDS011;1116;51.502;7.414;2022-10-18T00:57:50;2.37;;;2.20;;
2542;SDS011;1116;51.502;7.414;2022-10-18T01:00:25;2.60;;;2.13;;
2542;SDS011;1116;51.502;7.414;2022-10-18T01:02:59;2.90;;;2.00;;
2542;SDS011;1116;51.502;7.414;2022-10-18T01:05:36;2.67;;;2.47;;
2542;SDS011;1116;51.502;7.414;2022-10-18T01:08:20;2.90;;;2.17;;
2542;SDS011;1116;51.502;7.414;2022-10-18T01:11:07;3.47;;;2.27;;
2542;SDS011;1116;51.502;7.414;2022-10-18T01:13:53;2.60;;;2.40;;
2542;SDS011;1116;51.502;7.414;2022-10-18T01:16:38;1.90;;;1.80;;
2542;SDS011;1116;51.502;7.414;2022-10-18T01:19:39;2.83;;;2.47;;
2542;SDS011;1116;51.502;7.414;2022-10-18T01:22:33;2.63;;;2.40;;
2542;SDS011;1116;51.502;7.414;2022-10-18T01:25:15;3.63;;;3.23;;
2542;SDS011;1116;51.502;7.414;2022-10-18T01:27:56;3.70;;;2.77;;
2542;SDS011;1116;51.502;7.414;2022-10-18T01:30:38;2.80;;;2.50;;
2542;SDS011;1116;51.502;7.414;2022-10-18T01:33:15;3.00;;;2.80;;
2542;SDS011;1116;51.502;7.414;2022-10-18T01:36:02;3.30;;;3.07;;
2542;SDS011;1116;51.502;7.414;2022-10-18T01:38:39;3.23;;;2.57;;
2542;SDS011;1116;51.502;7.414;2022-10-18T01:41:12;3.03;;;2.83;;
2542;SDS011;1116;51.502;7.414;2022-10-18T01:43:55;5.13;;;2.60;;
2542;SDS011;1116;51.502;7.414;2022-10-18T01:46:31;2.70;;;2.50;;
2542;SDS011;1116;51.502;7.414;2022-10-18T01:49:05;5.10;;;3.27;;
2542;SDS011;1116;51.502;7.414;2022-10-18T01:51:43;11.67;;;3.23;;
2542;SDS011;1116;51.502;7.414;2022-10-18T01:54:16;3.67;;;2.70;;
2542;SDS011;1116;51.502;7.414;2022-10-18T01:56:51;2.50;;;2.37;;
2542;SDS011;1116;51.502;7.414;2022-10-18T01:59:34;2.73;;;2.47;;
2542;SDS011;1116;51.502;7.414;2022-10-18T02:02:22;3.10;;;2.80;;
2542;SDS011;1116;51.502;7.414;2022-10-18T02:05:13;2.30;;;2.00;;
2542;SDS011;1116;51.502;7.414;2022-10-18T02:07:52;1.90;;;1.80;;
2542;SDS011;1116;51.502;7.414;2022-10-18T02:10:51;2.07;;;1.97;;
2542;SDS011;1116;51.502;7.414;2022-10-18T02:13:26;2.40;;;2.20;;
2542;SDS011;1116;51.502;7.414;2022-10-18T02:16:06;3.07;;;2.10;;
2542;SDS011;1116;51.502;7.414;2022-10-18T02:18:47;2.10;;;1.90;;
2542;SDS011;1116;51.502;7.414;2022-10-18T02:21:25;2.10;;;2.00;;
2542;SDS011;1116;51.502;7.414;2022-10-18T02:23:58;5.53;;;2.30;;
2542;SDS011;1116;51.502;7.414;2022-10-18T02:26:34;2.70;;;2.10;;
2542;SDS011;1116;51.502;7.414;2022-10-18T02:29:05;1.90;;;1.80;;
2542;SDS011;1116;51.502;7.414;2022-10-18T02:31:38;2.20;;;2.00;;
2542;SDS011;1116;51.502;7.414;2022-10-18T02:34:23;2.20;;;2.00;;
2542;SDS011;1116;51.502;7.414;2022-10-18T02:37:01;3.70;;;2.10;;
2542;SDS011;1116;51.502;7.414;2022-10-18T02:39:36;2.30;;;2.13;;
2542;SDS011;1116;51.502;7.414;2022-10-18T02:42:10;2.23;;;2.03;;
2542;SDS011;1116;51.502;7.414;2022-10-18T02:44:42;3.13;;;2.20;;
2542;SDS011;1116;51.502;7.414;2022-10-18T02:47:15;2.23;;;1.80;;
2542;SDS011;1116;51.502;7.414;2022-10-18T02:49:52;1.60;;;1.50;;
2542;SDS011;1116;51.502;7.414;2022-10-18T02:52:23;2.20;;;1.90;;
2542;SDS011;1116;51.502;7.414;2022-10-18T02:54:54;2.07;;;1.53;;
2542;SDS011;1116;51.502;7.414;2022-10-18T02:57:29;1.80;;;1.60;;
2542;SDS011;1116;51.502;7.414;2022-10-18T03:00:00;6.73;;;2.73;;
2542;SDS011;1116;51.502;7.414;2022-10-18T03:02:32;1.90;;;1.80;;
2542;SDS011;1116;51.502;7.414;2022-10-18T03:05:07;2.20;;;1.50;;
2542;SDS011;1116;51.502;7.414;2022-10-18T03:07:38;2.30;;;1.80;;
2542;SDS011;1116;51.502;7.414;2022-10-18T03:10:08;1.73;;;1.60;;
2542;SDS011;1116;51.502;7.414;2022-10-18T03:12:39;1.70;;;1.60;;
2542;SDS011;1116;51.502;7.414;2022-10-18T03:15:11;1.53;;;1.40;;
2542;SDS011;1116;51.502;7.414;2022-10-18T03:17:41;2.40;;;2.20;;
2542;SDS011;1116;51.502;7.414;2022-10-18T03:20:17;3.40;;;1.73;;
2542;SDS011;1116;51.502;7.414;2022-10-18T03:22:51;1.70;;;1.60;;
2542;SDS011;1116;51.502;7.414;2022-10-18T03:25:23;1.83;;;1.50;;
2542;SDS011;1116;51.502;7.414;2022-10-18T03:27:54;1.73;;;1.57;;
2542;SDS011;1116;51.502;7.414;2022-10-18T03:30:25;2.47;;;2.00;;
2542;SDS011;1116;51.502;7.414;2022-10-18T03:33:00;2.23;;;2.00;;
2542;SDS011;1116;51.502;7.414;2022-10-18T03:35:34;1.83;;;1.63;;
2542;SDS011;1116;51.502;7.414;2022-10-18T03:38:04;1.80;;;1.70;;
2542;SDS011;1116;51.502;7.414;2022-10-18T03:40:37;2.30;;;1.50;;
2542;SDS011;1116;51.502;7.414;2022-10-18T03:43:09;2.50;;;2.27;;
2542;SDS011;1116;51.502;7.414;2022-10-18T03:45:40;2.17;;;1.80;;
2542;SDS011;1116;51.502;7.414;2022-10-18T03:48:21;1.90;;;1.70;;
2542;SDS011;1116;51.502;7.414;2022-10-18T03:51:19;3.53;;;1.93;;
2542;SDS011;1116;51.502;7.414;2022-10-18T03:54:07;2.20;;;2.00;;
2542;SDS011;1116;51.502;7.414;2022-10-18T03:56:51;1.83;;;1.63;;
2542;SDS011;1116;51.502;7.414;2022-10-18T03:59:21;1.80;;;1.70;;
2542;SDS011;1116;51.502;7.414;2022-10-18T04:01:52;1.97;;;1.80;;
2542;SDS011;1116;51.502;7.414;2022-10-18T04:04:26;2.40;;;2.20;;
2542;SDS011;1116;51.502;7.414;2022-10-18T04:06:59;1.93;;;1.83;;
2542;SDS011;1116;51.502;7.414;2022-10-18T04:09:30;2.70;;;2.13;;
2542;SDS011;1116;51.502;7.414;2022-10-18T04:12:01;3.17;;;2.27;;
2542;SDS011;1116;51.502;7.414;2022-10-18T04:14:34;2.90;;;2.33;;
2542;SDS011;1116;51.502;7.414;2022-10-18T04:17:05;2.50;;;2.10;;
2542;SDS011;1116;51.502;7.414;2022-10-18T04:19:36;2.30;;;2.10;;
2542;SDS011;1116;51.502;7.414;2022-10-18T04:22:11;3.27;;;2.17;;
2542;SDS011;1116;51.502;7.414;2022-10-18T04:24:41;3.37;;;2.53;;
2542;SDS011;1116;51.502;7.414;2022-10-18T04:27:12;2.60;;;2.40;;
2542;SDS011;1116;51.502;7.414;2022-10-18T04:29:43;2.10;;;1.90;;
2542;SDS011;1116;51.502;7.414;2022-10-18T04:32:17;2.20;;;1.80;;
2542;SDS011;1116;51.502;7.414;2022-10-18T04:34:49;4.00;;;2.67;;
2542;SDS011;1116;51.502;7.414;2022-10-18T04:37:23;2.77;;;2.53;;
2542;SDS011;1116;51.502;7.414;2022-10-18T04:39:56;2.70;;;2.50;;
2542;SDS011;1116;51.502;7.414;2022-10-18T04:42:30;3.30;;;3.00;;
2542;SDS011;1116;51.502;7.414;2022-10-18T04:45:00;2.80;;;2.60;;
2542;SDS011;1116;51.502;7.414;2022-10-18T04:47:31;3.93;;;3.43;;
2542;SDS011;1116;51.502;7.414;2022-10-18T04:50:06;2.90;;;2.70;;
2542;SDS011;1116;51.502;7.414;2022-10-18T04:52:41;6.53;;;4.87;;
2542;SDS011;1116;51.502;7.414;2022-10-18T04:55:14;3.90;;;3.30;;
2542;SDS011;1116;51.502;7.414;2022-10-18T04:57:48;4.30;;;3.70;;
2542;SDS011;1116;51.502;7.414;2022-10-18T05:00:19;6.80;;;5.30;;
2542;SDS011;1116;51.502;7.414;2022-10-18T05:02:54;6.00;;;4.77;;
2542;SDS011;1116;51.502;7.414;2022-10-18T05:05:26;4.17;;;3.77;;
2542;SDS011;1116;51.502;7.414;2022-10-18T05:08:27;6.57;;;4.20;;
2542;SDS011;1116;51.502;7.414;2022-10-18T05:10:59;4.53;;;3.53;;
2542;SDS011;1116;51.502;7.414;2022-10-18T05:13:30;4.97;;;4.33;;
2542;SDS011;1116;51.502;7.414;2022-10-18T05:16:00;4.53;;;4.03;;
2542;SDS011;1116;51.502;7.414;2022-10-18T05:18:37;4.63;;;4.20;;
2542;SDS011;1116;51.502;7.414;2022-10-18T05:21:10;5.77;;;4.67;;
2542;SDS011;1116;51.502;7.414;2022-10-18T05:23:44;6.10;;;4.90;;
2542;SDS011;1116;51.502;7.414;2022-10-18T05:26:19;6.97;;;4.97;;
2542;SDS011;1116;51.502;7.414;2022-10-18T05:28:53;6.27;;;4.50;;
2542;SDS011;1116;51.502;7.414;2022-10-18T05:31:24;5.90;;;4.60;;
2542;SDS011;1116;51.502;7.414;2022-10-18T05:33:54;8.47;;;6.07;;
2542;SDS011;1116;51.502;7.414;2022-10-18T05:36:28;7.00;;;5.73;;
2542;SDS011;1116;51.502;7.414;2022-10-18T05:39:05;8.87;;;6.63;;
2542;SDS011;1116;51.502;7.414;2022-10-18T05:41:36;5.73;;;5.13;;
2542;SDS011;1116;51.502;7.414;2022-10-18T05:44:09;5.20;;;4.70;;
2542;SDS011;1116;51.502;7.414;2022-10-18T05:46:42;9.90;;;6.90;;
2542;SDS011;1116;51.502;7.414;2022-10-18T05:49:13;6.37;;;5.37;;
2542;SDS011;1116;51.502;7.414;2022-10-18T05:51:44;6.70;;;6.10;;
2542;SDS011;1116;51.502;7.414;2022-10-18T05:54:20;6.10;;;4.57;;
2542;SDS011;1116;51.502;7.414;2022-10-18T05:56:50;5.90;;;5.07;;
2542;SDS011;1116;51.502;7.414;2022-10-18T05:59:21;5.63;;;5.13;;
2542;SDS011;1116;51.502;7.414;2022-10-18T06:01:52;7.00;;;5.50;;
2542;SDS011;1116;51.502;7.414;2022-10-18T06:04:30;7.47;;;5.73;;
2542;SDS011;1116;51.502;7.414;2022-10-18T06:07:01;9.23;;;7.00;;
2542;SDS011;1116;51.502;7.414;2022-10-18T06:09:35;6.83;;;5.93;;
2542;SDS011;1116;51.502;7.414;2022-10-18T06:12:11;6.03;;;5.30;;
2542;SDS011;1116;51.502;7.414;2022-10-18T06:14:42;8.00;;;6.17;;
2542;SDS011;1116;51.502;7.414;2022-10-18T06:17:13;10.97;;;6.20;;
2542;SDS011;1116;51.502;7.414;2022-10-18T06:19:44;8.23;;;6.47;;
2542;SDS011;1116;51.502;7.414;2022-10-18T06:22:18;7.83;;;7.03;;
2542;SDS011;1116;51.502;7.414;2022-10-18T06:24:55;7.43;;;6.10;;
2542;SDS011;1116;51.502;7.414;2022-10-18T06:27:26;8.63;;;5.97;;
2542;SDS011;1116;51.502;7.414;2022-10-18T06:30:01;7.97;;;6.17;;
2542;SDS011;1116;51.502;7.414;2022-10-18T06:32:32;10.07;;;7.50;;
2542;SDS011;1116;51.502;7.414;2022-10-18T06:35:03;8.60;;;7.10;;
2542;SDS011;1116;51.502;7.414;2022-10-18T06:37:37;8.60;;;7.40;;
2542;SDS011;1116;51.502;7.414;2022-10-18T06:40:31;7.90;;;6.37;;
2542;SDS011;1116;51.502;7.414;2022-10-18T06:43:05;9.20;;;7.13;;
2542;SDS011;1116;51.502;7.414;2022-10-18T06:45:47;7.50;;;6.70;;
2542;SDS011;1116;51.502;7.414;2022-10-18T06:48:22;9.43;;;7.53;;
2542;SDS011;1116;51.502;7.414;2022-10-18T06:50:54;9.17;;;7.43;;
2542;SDS011;1116;51.502;7.414;2022-10-18T06:53:27;10.47;;;8.87;;
2542;SDS011;1116;51.502;7.414;2022-10-18T06:56:05;9.43;;;8.17;;
2542;SDS011;1116;51.502;7.414;2022-10-18T06:58:37;9.80;;;8.70;;
2542;SDS011;1116;51.502;7.414;2022-10-18T07:01:09;8.93;;;8.03;;
2542;SDS011;1116;51.502;7.414;2022-10-18T07:03:44;10.97;;;8.57;;
2542;SDS011;1116;51.502;7.414;2022-10-18T07:06:18;11.20;;;8.70;;
2542;SDS011;1116;51.502;7.414;2022-10-18T07:08:50;10.50;;;8.20;;
2542;SDS011;1116;51.502;7.414;2022-10-18T07:11:25;12.10;;;10.23;;
2542;SDS011;1116;51.502;7.414;2022-10-18T07:14:00;11.60;;;9.30;;
2542;SDS011;1116;51.502;7.414;2022-10-18T07:16:32;12.40;;;9.90;;
2542;SDS011;1116;51.502;7.414;2022-10-18T07:19:04;14.80;;;11.13;;
2542;SDS011;1116;51.502;7.414;2022-10-18T07:21:36;12.30;;;10.23;;
2542;SDS011;1116;51.502;7.414;2022-10-18T07:24:07;12.97;;;8.87;;
2542;SDS011;1116;51.502;7.414;2022-10-18T07:26:40;11.40;;;9.10;;
2542;SDS011;1116;51.502;7.414;2022-10-18T07:29:13;8.97;;;8.07;;
2542;SDS011;1116;51.502;7.414;2022-10-18T07:31:44;14.43;;;9.50;;
2542;SDS011;1116;51.502;7.414;2022-10-18T07:34:15;13.20;;;9.97;;
2542;SDS011;1116;51.502;7.414;2022-10-18T07:36:46;14.17;;;10.63;;
2542;SDS011;1116;51.502;7.414;2022-10-18T07:39:19;10.83;;;9.40;;
2542;SDS011;1116;51.502;7.414;2022-10-18T07:41:53;12.73;;;10.33;;
2542;SDS011;1116;51.502;7.414;2022-10-18T07:44:24;13.73;;;10.30;;
2542;SDS011;1116;51.502;7.414;2022-10-18T07:46:59;11.93;;;10.20;;
2542;SDS011;1116;51.502;7.414;2022-10-18T07:49:30;12.70;;;11.00;;
2542;SDS011;1116;51.502;7.414;2022-10-18T07:52:00;11.07;;;9.97;;
2542;SDS011;1116;51.502;7.414;2022-10-18T07:54:33;12.43;;;11.13;;
2542;SDS011;1116;51.502;7.414;2022-10-18T07:57:09;11.93;;;10.60;;
2542;SDS011;1116;51.502;7.414;2022-10-18T07:59:40;13.53;;;11.13;;
2542;SDS011;1116;51.502;7.414;2022-10-18T08:02:12;14.77;;;11.63;;
2542;SDS011;1116;51.502;7.414;2022-10-18T08:04:43;18.57;;;12.17;;
2542;SDS011;1116;51.502;7.414;2022-10-18T08:07:16;17.60;;;12.00;;
2542;SDS011;1116;51.502;7.414;2022-10-18T08:09:47;15.60;;;12.43;;
2542;SDS011;1116;51.502;7.414;2022-10-18T08:12:22;16.67;;;13.30;;
2542;SDS011;1116;51.502;7.414;2022-10-18T08:14:53;20.87;;;15.30;;
2542;SDS011;1116;51.502;7.414;2022-10-18T08:17:27;29.13;;;17.43;;
2542;SDS011;1116;51.502;7.414;2022-10-18T08:19:58;31.77;;;20.43;;
2542;SDS011;1116;51.502;7.414;2022-10-18T08:22:48;22.53;;;16.83;;
2542;SDS011;1116;51.502;7.414;2022-10-18T08:25:25;25.47;;;17.63;;
2542;SDS011;1116;51.502;7.414;2022-10-18T08:28:01;20.40;;;16.60;;
2542;SDS011;1116;51.502;7.414;2022-10-18T08:30:35;24.07;;;16.60;;
2542;SDS011;1116;51.502;7.414;2022-10-18T08:33:06;25.47;;;17.83;;
2542;SDS011;1116;51.502;7.414;2022-10-18T08:35:37;22.00;;;16.93;;
2542;SDS011;1116;51.502;7.414;2022-10-18T08:38:11;24.27;;;17.27;;
2542;SDS011;1116;51.502;7.414;2022-10-18T08:40:45;28.63;;;19.03;;
2542;SDS011;1116;51.502;7.414;2022-10-18T08:43:27;27.50;;;20.37;;
2542;SDS011;1116;51.502;7.414;2022-10-18T08:46:03;28.53;;;20.83;;
2542;SDS011;1116;51.502;7.414;2022-10-18T08:48:39;26.23;;;19.87;;
2542;SDS011;1116;51.502;7.414;2022-10-18T08:51:16;29.33;;;21.50;;
2542;SDS011;1116;51.502;7.414;2022-10-18T08:53:58;39.13;;;25.47;;
2542;SDS011;1116;51.502;7.414;2022-10-18T08:56:36;26.67;;;20.70;;
2542;SDS011;1116;51.502;7.414;2022-10-18T08:59:13;32.00;;;24.70;;
2542;SDS011;1116;51.502;7.414;2022-10-18T09:01:51;38.50;;;26.40;;
2542;SDS011;1116;51.502;7.414;2022-10-18T09:04:36;31.10;;;23.00;;
2542;SDS011;1116;51.502;7.414;2022-10-18T09:07:22;24.83;;;20.90;;
2542;SDS011;1116;51.502;7.414;2022-10-18T09:10:13;31.57;;;24.17;;
2542;SDS011;1116;51.502;7.414;2022-10-18T09:13:04;29.50;;;22.93;;
2542;SDS011;1116;51.502;7.414;2022-10-18T09:15:48;34.63;;;25.83;;
2542;SDS011;1116;51.502;7.414;2022-10-18T09:18:27;40.03;;;26.43;;
2542;SDS011;1116;51.502;7.414;2022-10-18T09:21:11;26.03;;;20.13;;
2542;SDS011;1116;51.502;7.414;2022-10-18T09:23:53;38.13;;;24.00;;
2542;SDS011;1116;51.502;7.414;2022-10-18T09:26:36;29.80;;;23.07;;
2542;SDS011;1116;51.502;7.414;2022-10-18T09:29:20;38.20;;;25.23;;
2542;SDS011;1116;51.502;7.414;2022-10-18T09:32:09;29.10;;;21.87;;
2542;SDS011;1116;51.502;7.414;2022-10-18T09:34:49;34.80;;;24.63;;
2542;SDS011;1116;51.502;7.414;2022-10-18T09:37:23;36.83;;;24.03;;
2542;SDS011;1116;51.502;7.414;2022-10-18T09:40:01;32.90;;;25.70;;
2542;SDS011;1116;51.502;7.414;2022-10-18T09:42:50;33.53;;;25.57;;
2542;SDS011;1116;51.502;7.414;2022-10-18T09:45:30;28.50;;;21.80;;
2542;SDS011;1116;51.502;7.414;2022-10-18T09:48:13;30.70;;;23.10;;
2542;SDS011;1116;51.502;7.414;2022-10-18T09:50:53;27.60;;;21.10;;
2542;SDS011;1116;51.502;7.414;2022-10-18T09:53:31;22.10;;;19.37;;
2542;SDS011;1116;51.502;7.414;2022-10-18T09:56:08;26.83;;;21.23;;
2542;SDS011;1116;51.502;7.414;2022-10-18T09:58:41;21.87;;;19.17;;
2542;SDS011;1116;51.502;7.414;2022-10-18T10:01:14;25.33;;;20.60;;
2542;SDS011;1116;51.502;7.414;2022-10-18T10:03:54;25.63;;;20.40;;
2542;SDS011;1116;51.502;7.414;2022-10-18T10:06:25;23.53;;;18.33;;
2542;SDS011;1116;51.502;7.414;2022-10-18T10:09:00;22.67;;;20.20;;
2542;SDS011;1116;51.502;7.414;2022-10-18T10:11:43;24.53;;;20.83;;
2542;SDS011;1116;51.502;7.414;2022-10-18T10:14:16;24.73;;;20.90;;
2542;SDS011;1116;51.502;7.414;2022-10-18T10:16:50;22.53;;;19.80;;
2542;SDS011;1116;51.502;7.414;2022-10-18T10:19:29;22.27;;;19.10;;
2542;SDS011;1116;51.502;7.414;2022-10-18T10:22:04;25.97;;;21.27;;
2542;SDS011;1116;51.502;7.414;2022-10-18T10:24:42;26.73;;;21.70;;
2542;SDS011;1116;51.502;7.414;2022-10-18T10:27:28;26.50;;;21.80;;
2542;SDS011;1116;51.502;7.414;2022-10-18T10:30:01;27.20;;;20.80;;
2542;SDS011;1116;51.502;7.414;2022-10-18T10:32:44;23.97;;;20.43;;
2542;SDS011;1116;51.502;7.414;2022-10-18T10:35:27;29.63;;;23.17;;
2542;SDS011;1116;51.502;7.414;2022-10-18T10:38:23;35.10;;;26.23;;
2542;SDS011;1116;51.502;7.414;2022-10-18T10:40:56;33.77;;;25.73;;
2542;SDS011;1116;51.502;7.414;2022-10-18T10:43:30;30.23;;;23.90;;
2542;SDS011;1116;51.502;7.414;2022-10-18T10:46:06;34.90;;;27.57;;
2542;SDS011;1116;51.502;7.414;2022-10-18T10:48:44;33.47;;;25.43;;
2542;SDS011;1116;51.502;7.414;2022-10-18T10:51:41;32.67;;;27.13;;
2542;SDS011;1116;51.502;7.414;2022-10-18T10:54:29;33.67;;;27.07;;
2542;SDS011;1116;51.502;7.414;2022-10-18T10:57:04;33.70;;;26.67;;
2542;SDS011;1116;51.502;7.414;2022-10-18T10:59:45;35.77;;;29.77;;
2542;SDS011;1116;51.502;7.414;2022-10-18T11:02:19;32.97;;;26.60;;
2542;SDS011;1116;51.502;7.414;2022-10-18T11:04:51;34.73;;;27.53;;
2542;SDS011;1116;51.502;7.414;2022-10-18T11:07:32;33.33;;;26.00;;
2542;SDS011;1116;51.502;7.414;2022-10-18T11:10:09;31.00;;;25.07;;
2542;SDS011;1116;51.502;7.414;2022-10-18T11:12:51;39.33;;;28.37;;
2542;SDS011;1116;51.502;7.414;2022-10-18T11:15:30;29.30;;;25.20;;
2542;SDS011;1116;51.502;7.414;2022-10-18T11:18:14;31.87;;;26.60;;
2542;SDS011;1116;51.502;7.414;2022-10-18T11:20:52;39.20;;;29.87;;
2542;SDS011;1116;51.502;7.414;2022-10-18T11:23:31;32.07;;;27.13;;
2542;SDS011;1116;51.502;7.414;2022-10-18T11:26:12;30.00;;;26.10;;
2542;SDS011;1116;51.502;7.414;2022-10-18T11:29:15;31.63;;;25.90;;
2542;SDS011;1116;51.502;7.414;2022-10-18T11:32:07;33.00;;;28.10;;
2542;SDS011;1116;51.502;7.414;2022-10-18T11:34:53;32.60;;;29.07;;
2542;SDS011;1116;51.502;7.414;2022-10-18T11:37:40;28.17;;;23.90;;
2542;SDS011;1116;51.502;7.414;2022-10-18T11:40:30;26.97;;;24.13;;
2542;SDS011;1116;51.502;7.414;2022-10-18T11:43:13;29.47;;;25.70;;
2542;SDS011;1116;51.502;7.414;2022-10-18T11:46:01;25.03;;;21.73;;
2542;SDS011;1116;51.502;7.414;2022-10-18T11:48:47;23.03;;;20.63;;
2542;SDS011;1116;51.502;7.414;2022-10-18T11:51:39;22.70;;;19.70;;
2542;SDS011;1116;51.502;7.414;2022-10-18T11:57:48;20.70;;;18.80;;
2542;SDS011;1116;51.502;7.414;2022-10-18T12:00:33;25.47;;;22.20;;
2542;SDS011;1116;51.502;7.414;2022-10-18T12:03:14;22.10;;;19.87;;
2542;SDS011;1116;51.502;7.414;2022-10-18T12:05:52;21.70;;;18.67;;
2542;SDS011;1116;51.502;7.414;2022-10-18T12:08:27;20.40;;;18.30;;
2542;SDS011;1116;51.502;7.414;2022-10-18T12:11:10;19.40;;;17.40;;
2542;SDS011;1116;51.502;7.414;2022-10-18T12:13:49;19.37;;;17.47;;
2542;SDS011;1116;51.502;7.414;2022-10-18T12:16:29;19.50;;;17.57;;
2542;SDS011;1116;51.502;7.414;2022-10-18T12:19:19;20.43;;;18.57;;
2542;SDS011;1116;51.502;7.414;2022-10-18T12:21:54;20.87;;;18.70;;
2542;SDS011;1116;51.502;7.414;2022-10-18T12:24:27;20.37;;;18.47;;
2542;SDS011;1116;51.502;7.414;2022-10-18T12:27:04;19.30;;;17.30;;
2542;SDS011;1116;51.502;7.414;2022-10-18T12:29:38;22.33;;;19.90;;
2542;SDS011;1116;51.502;7.414;2022-10-18T12:32:19;20.83;;;18.77;;
2542;SDS011;1116;51.502;7.414;2022-10-18T12:34:55;21.03;;;19.03;;
2542;SDS011;1116;51.502;7.414;2022-10-18T12:37:36;19.53;;;17.53;;
2542;SDS011;1116;51.502;7.414;2022-10-18T12:40:21;19.83;;;17.83;;
2542;SDS011;1116;51.502;7.414;2022-10-18T12:42:56;23.03;;;20.83;;
2542;SDS011;1116;51.502;7.414;2022-10-18T12:45:32;18.13;;;16.33;;
2542;SDS011;1116;51.502;7.414;2022-10-18T12:48:25;15.03;;;13.63;;
2542;SDS011;1116;51.502;7.414;2022-10-18T12:51:03;17.50;;;15.80;;
2542;SDS011;1116;51.502;7.414;2022-10-18T12:54:07;15.20;;;13.80;;
2542;SDS011;1116;51.502;7.414;2022-10-18T12:56:41;15.67;;;14.13;;
2542;SDS011;1116;51.502;7.414;2022-10-18T13:02:30;14.93;;;12.87;;
2542;SDS011;1116;51.502;7.414;2022-10-18T13:08:37;13.30;;;11.10;;
2542;SDS011;1116;51.502;7.414;2022-10-18T13:11:13;12.13;;;10.77;;
2542;SDS011;1116;51.502;7.414;2022-10-18T13:17:57;9.60;;;8.70;;
2542;SDS011;1116;51.502;7.414;2022-10-18T13:20:36;9.80;;;8.53;;
2542;SDS011;1116;51.502;7.414;2022-10-18T13:23:15;8.10;;;6.40;;
2542;SDS011;1116;51.502;7.414;2022-10-18T13:26:08;7.63;;;5.37;;
2542;SDS011;1116;51.502;7.414;2022-10-18T13:28:54;6.73;;;4.80;;
2542;SDS011;1116;51.502;7.414;2022-10-18T13:31:34;9.33;;;5.87;;
2542;SDS011;1116;51.502;7.414;2022-10-18T13:34:29;6.73;;;4.90;;
2542;SDS011;1116;51.502;7.414;2022-10-18T13:37:17;9.00;;;4.93;;
2542;SDS011;1116;51.502;7.414;2022-10-18T13:42:54;6.97;;;5.10;;
2542;SDS011;1116;51.502;7.414;2022-10-18T13:45:41;6.27;;;5.20;;
2542;SDS011;1116;51.502;7.414;2022-10-18T13:51:29;7.20;;;4.80;;
2542;SDS011;1116;51.502;7.414;2022-10-18T13:54:25;6.53;;;4.20;;
2542;SDS011;1116;51.502;7.414;2022-10-18T14:06:31;8.43;;;3.83;;
2542;SDS011;1116;51.502;7.414;2022-10-18T14:09:07;5.80;;;2.80;;
2542;SDS011;1116;51.502;7.414;2022-10-18T14:12:07;6.10;;;2.80;;
2542;SDS011;1116;51.502;7.414;2022-10-18T14:14:49;5.07;;;2.60;;
2542;SDS011;1116;51.502;7.414;2022-10-18T14:17:30;7.53;;;3.00;;
2542;SDS011;1116;51.502;7.414;2022-10-18T14:20:27;3.70;;;2.57;;
2542;SDS011;1116;51.502;7.414;2022-10-18T14:23:18;6.70;;;2.90;;
2542;SDS011;1116;51.502;7.414;2022-10-18T14:25:55;4.90;;;2.30;;
2542;SDS011;1116;51.502;7.414;2022-10-18T14:28:36;5.37;;;2.77;;
2542;SDS011;1116;51.502;7.414;2022-10-18T14:31:26;4.53;;;2.63;;
2542;SDS011;1116;51.502;7.414;2022-10-18T14:33:58;4.10;;;2.30;;
2542;SDS011;1116;51.502;7.414;2022-10-18T14:36:33;3.77;;;2.60;;
2542;SDS011;1116;51.502;7.414;2022-10-18T14:39:17;8.13;;;2.70;;
2542;SDS011;1116;51.502;7.414;2022-10-18T14:41:51;6.97;;;2.80;;
2542;SDS011;1116;51.502;7.414;2022-10-18T14:44:23;6.00;;;2.70;;
2542;SDS011;1116;51.502;7.414;2022-10-18T14:46:59;4.87;;;2.50;;
2542;SDS011;1116;51.502;7.414;2022-10-18T14:49:32;4.53;;;2.20;;
2542;SDS011;1116;51.502;7.414;2022-10-18T14:52:11;3.60;;;2.40;;
2542;SDS011;1116;51.502;7.414;2022-10-18T14:54:52;2.80;;;1.80;;
2542;SDS011;1116;51.502;7.414;2022-10-18T14:57:25;5.43;;;2.17;;
2542;SDS011;1116;51.502;7.414;2022-10-18T15:00:03;5.30;;;2.10;;
2542;SDS011;1116;51.502;7.414;2022-10-18T15:02:41;3.80;;;1.60;;
2542;SDS011;1116;51.502;7.414;2022-10-18T15:05:17;3.93;;;1.70;;
2542;SDS011;1116;51.502;7.414;2022-10-18T15:07:52;4.20;;;1.90;;
2542;SDS011;1116;51.502;7.414;2022-10-18T15:10:30;3.70;;;1.70;;
2542;SDS011;1116;51.502;7.414;2022-10-18T15:13:02;5.73;;;2.10;;
2542;SDS011;1116;51.502;7.414;2022-10-18T15:15:39;5.77;;;2.03;;
2542;SDS011;1116;51.502;7.414;2022-10-18T15:18:14;4.47;;;2.00;;
2542;SDS011;1116;51.502;7.414;2022-10-18T15:23:48;5.60;;;2.10;;
2542;SDS011;1116;51.502;7.414;2022-10-18T15:26:27;4.33;;;1.87;;
2542;SDS011;1116;51.502;7.414;2022-10-18T15:29:00;6.20;;;2.00;;
2542;SDS011;1116;51.502;7.414;2022-10-18T15:31:38;7.40;;;2.30;;
2542;SDS011;1116;51.502;7.414;2022-10-18T15:34:14;4.77;;;1.50;;
2542;SDS011;1116;51.502;7.414;2022-10-18T15:36:49;5.97;;;2.50;;
2542;SDS011;1116;51.502;7.414;2022-10-18T15:39:27;3.70;;;1.90;;
2542;SDS011;1116;51.502;7.414;2022-10-18T15:42:02;2.43;;;1.97;;
2542;SDS011;1116;51.502;7.414;2022-10-18T15:44:36;6.00;;;2.27;;
2542;SDS011;1116;51.502;7.414;2022-10-18T15:47:19;4.00;;;1.80;;
2542;SDS011;1116;51.502;7.414;2022-10-18T15:49:54;4.20;;;2.13;;
2542;SDS011;1116;51.502;7.414;2022-10-18T15:52:36;3.77;;;1.87;;
2542;SDS011;1116;51.502;7.414;2022-10-18T15:58:17;4.27;;;1.80;;
2542;SDS011;1116;51.502;7.414;2022-10-18T16:00:52;3.00;;;1.70;;
2542;SDS011;1116;51.502;7.414;2022-10-18T16:03:31;3.93;;;1.43;;
2542;SDS011;1116;51.502;7.414;2022-10-18T16:06:08;3.23;;;2.10;;
2542;SDS011;1116;51.502;7.414;2022-10-18T16:08:45;2.73;;;1.30;;
2542;SDS011;1116;51.502;7.414;2022-10-18T16:11:18;3.67;;;1.77;;
2542;SDS011;1116;51.502;7.414;2022-10-18T16:13:57;3.20;;;1.70;;
2542;SDS011;1116;51.502;7.414;2022-10-18T16:16:28;3.33;;;1.60;;
2542;SDS011;1116;51.502;7.414;2022-10-18T16:18:59;3.77;;;2.20;;
2542;SDS011;1116;51.502;7.414;2022-10-18T16:21:38;4.00;;;2.70;;
2542;SDS011;1116;51.502;7.414;2022-10-18T16:24:09;4.87;;;2.60;;
2542;SDS011;1116;51.502;7.414;2022-10-18T16:26:43;6.57;;;2.83;;
2542;SDS011;1116;51.502;7.414;2022-10-18T16:29:22;4.80;;;2.33;;
2542;SDS011;1116;51.502;7.414;2022-10-18T16:31:59;2.80;;;1.70;;
2542;SDS011;1116;51.502;7.414;2022-10-18T16:34:32;5.57;;;2.30;;
2542;SDS011;1116;51.502;7.414;2022-10-18T16:37:03;3.83;;;1.87;;
2542;SDS011;1116;51.502;7.414;2022-10-18T16:39:39;3.83;;;1.80;;
2542;SDS011;1116;51.502;7.414;2022-10-18T16:42:11;3.43;;;1.70;;
2542;SDS011;1116;51.502;7.414;2022-10-18T16:44:54;4.73;;;1.93;;